createdAt,value
2022-10-19T00:02:21.756Z,17.35
2022-10-19T00:04:48.301Z,6.32
2022-10-19T00:07:14.845Z,7.93
2022-10-19T00:09:43.935Z,11.63
2022-10-19T00:12:10.471Z,19.58
2022-10-19T00:14:36.926Z,11.73
2022-10-19T00:17:03.395Z,11.65
2022-10-19T00:19:29.906Z,17.17
2022-10-19T00:21:56.366Z,15.25
2022-10-19T00:24:22.824Z,17.52
2022-10-19T00:26:49.320Z,9.60
2022-10-19T00:29:16.162Z,7.70
2022-10-19T00:31:42.896Z,14.68
2022-10-19T00:34:09.799Z,10.02
2022-10-19T00:36:39.202Z,18.85
2022-10-19T00:39:07.768Z,6.35
2022-10-19T00:41:36.139Z,12.63
2022-10-19T00:44:07.240Z,13.25
2022-10-19T00:46:36.953Z,15.70
2022-10-19T00:49:17.546Z,12.20
2022-10-19T00:51:47.918Z,10.43
2022-10-19T00:54:15.945Z,8.63
2022-10-19T00:56:44.691Z,8.55
2022-10-19T00:59:14.674Z,14.48
2022-10-19T01:01:43.798Z,13.48
2022-10-19T01:04:10.808Z,13.25
2022-10-19T01:06:38.361Z,11.88
2022-10-19T01:09:05.885Z,8.48
2022-10-19T01:11:57.422Z,11.52
2022-10-19T01:14:46.906Z,9.60
2022-10-19T01:17:32.318Z,10.70
2022-10-19T01:20:23.007Z,9.77
2022-10-19T01:23:10.233Z,10.73
2022-10-19T01:26:01.163Z,13.75
2022-10-19T01:29:06.300Z,5.80
2022-10-19T01:31:57.217Z,6.25
2022-10-19T01:34:40.326Z,3.80
2022-10-19T01:37:14.838Z,4.95
2022-10-19T01:39:49.794Z,13.77
2022-10-19T01:42:21.580Z,5.13
2022-10-19T01:45:06.437Z,6.93
2022-10-19T01:47:38.714Z,11.02
2022-10-19T01:50:16.066Z,6.32
2022-10-19T01:52:43.628Z,6.65
2022-10-19T01:55:13.985Z,6.85
2022-10-19T01:57:45.821Z,9.75
2022-10-19T02:00:15.784Z,6.28
2022-10-19T02:02:48.543Z,4.43
2022-10-19T02:05:19.050Z,8.48
2022-10-19T02:07:50.821Z,7.55
2022-10-19T02:10:19.325Z,8.70
2022-10-19T02:12:46.857Z,5.63
2022-10-19T02:15:19.352Z,5.28
2022-10-19T02:17:48.972Z,7.65
2022-10-19T02:20:17.210Z,6.32
2022-10-19T02:22:43.758Z,5.20
2022-10-19T02:25:11.118Z,7.43
2022-10-19T02:27:42.007Z,5.45
2022-10-19T02:30:14.235Z,6.45
2022-10-19T02:32:41.036Z,5.10
2022-10-19T02:35:08.073Z,3.72
2022-10-19T02:40:06.894Z,4.20
2022-10-19T02:42:43.577Z,4.00
2022-10-19T02:45:37.143Z,5.90
2022-10-19T02:48:20.066Z,6.07
2022-10-19T02:50:49.929Z,9.75
2022-10-19T02:53:16.609Z,10.15
2022-10-19T02:55:43.663Z,6.90
2022-10-19T02:58:10.224Z,10.23
2022-10-19T03:00:36.717Z,8.35
2022-10-19T03:03:03.287Z,11.45
2022-10-19T03:05:29.790Z,10.88
2022-10-19T03:07:56.292Z,10.07
2022-10-19T03:10:23.066Z,8.43
2022-10-19T03:12:49.648Z,9.20
2022-10-19T03:15:17.247Z,6.78
2022-10-19T03:17:44.187Z,6.95
2022-10-19T03:20:11.806Z,7.28
2022-10-19T03:22:38.274Z,9.27
2022-10-19T03:25:05.068Z,9.10
2022-10-19T03:27:31.783Z,10.82
2022-10-19T03:29:58.472Z,9.27
2022-10-19T03:32:24.917Z,7.50
2022-10-19T03:34:51.360Z,10.05
2022-10-19T03:37:17.798Z,7.55
2022-10-19T03:39:44.261Z,8.90
2022-10-19T03:42:10.717Z,10.18
2022-10-19T03:44:37.151Z,10.25
2022-10-19T03:47:03.601Z,12.80
2022-10-19T03:49:30.036Z,14.00
2022-10-19T03:51:56.495Z,5.75
2022-10-19T03:54:26.489Z,13.27
2022-10-19T03:56:54.001Z,14.18
2022-10-19T03:59:20.458Z,10.02
2022-10-19T04:01:46.954Z,9.13
2022-10-19T04:04:16.587Z,10.38
2022-10-19T04:06:45.566Z,15.15
2022-10-19T04:09:14.414Z,6.78
2022-10-19T04:11:41.890Z,10.57
2022-10-19T04:16:36.106Z,13.48
2022-10-19T04:19:02.609Z,15.98
2022-10-19T04:21:34.531Z,12.07
2022-10-19T04:24:05.593Z,9.90
2022-10-19T04:26:32.714Z,19.83
2022-10-19T04:29:00.610Z,12.25
2022-10-19T04:31:28.195Z,13.82
2022-10-19T04:33:55.209Z,16.38
2022-10-19T04:36:22.127Z,13.13
2022-10-19T04:38:48.830Z,7.85
2022-10-19T04:41:18.188Z,16.10
2022-10-19T04:43:45.326Z,15.10
2022-10-19T04:46:18.021Z,14.50
2022-10-19T04:48:46.454Z,10.57
2022-10-19T04:51:13.164Z,11.00
2022-10-19T04:53:40.876Z,14.90
2022-10-19T04:56:11.042Z,10.85
2022-10-19T04:58:37.504Z,13.55
2022-10-19T05:01:17.549Z,11.18
2022-10-19T05:03:44.425Z,15.52
2022-10-19T05:06:12.417Z,17.30
2022-10-19T05:08:39.618Z,16.48
2022-10-19T05:11:12.287Z,10.73
2022-10-19T05:13:39.013Z,13.10
2022-10-19T05:16:08.095Z,13.57
2022-10-19T05:18:35.041Z,13.05
2022-10-19T05:21:12.637Z,16.92
2022-10-19T05:23:40.420Z,13.73
2022-10-19T05:26:13.335Z,16.05
2022-10-19T05:28:39.981Z,11.90
2022-10-19T05:31:19.039Z,13.95
2022-10-19T05:33:46.193Z,12.35
2022-10-19T05:36:26.589Z,8.77
2022-10-19T05:38:57.282Z,11.73
2022-10-19T05:41:25.043Z,12.13
2022-10-19T05:43:57.567Z,9.30
2022-10-19T05:46:25.255Z,9.13
2022-10-19T05:48:51.783Z,13.88
2022-10-19T05:51:20.246Z,10.63
2022-10-19T05:53:46.805Z,6.97
2022-10-19T05:56:18.787Z,22.65
2022-10-19T05:58:45.593Z,11.38
2022-10-19T06:01:12.216Z,8.85
2022-10-19T06:03:38.703Z,14.98
2022-10-19T06:06:06.637Z,11.02
2022-10-19T06:08:33.518Z,11.63
2022-10-19T06:11:15.071Z,15.02
2022-10-19T06:13:43.278Z,8.85
2022-10-19T06:16:11.848Z,8.95
2022-10-19T06:18:38.660Z,11.68
2022-10-19T06:21:08.034Z,12.77
2022-10-19T06:23:35.669Z,13.30
2022-10-19T06:26:04.905Z,7.60
2022-10-19T06:28:31.545Z,7.32
2022-10-19T06:30:58.890Z,8.00
2022-10-19T06:33:26.641Z,7.68
2022-10-19T06:35:53.405Z,7.60
2022-10-19T06:38:19.911Z,9.25
2022-10-19T06:40:46.488Z,5.13
2022-10-19T06:43:12.942Z,9.77
2022-10-19T06:45:39.586Z,7.72
2022-10-19T06:48:07.803Z,4.97
2022-10-19T06:50:35.336Z,6.28
2022-10-19T06:53:01.776Z,5.68
2022-10-19T06:55:28.428Z,9.23
2022-10-19T06:57:54.852Z,4.95
2022-10-19T07:00:21.543Z,4.68
2022-10-19T07:02:48.638Z,6.45
2022-10-19T07:05:16.267Z,6.82
2022-10-19T07:07:43.057Z,6.55
2022-10-19T07:10:09.942Z,9.00
2022-10-19T07:12:36.493Z,5.28
2022-10-19T07:15:03.257Z,7.97
2022-10-19T07:17:29.878Z,5.07
2022-10-19T07:19:56.475Z,9.70
2022-10-19T07:22:27.971Z,4.45
2022-10-19T07:24:54.872Z,5.65
2022-10-19T07:27:21.461Z,5.55
2022-10-19T07:29:48.010Z,6.28
2022-10-19T07:32:14.479Z,11.30
2022-10-19T07:34:40.948Z,10.18
2022-10-19T07:37:07.444Z,5.30
2022-10-19T07:39:33.902Z,7.78
2022-10-19T07:42:00.330Z,8.52
2022-10-19T07:44:26.877Z,8.65
2022-10-19T07:46:53.322Z,5.47
2022-10-19T07:49:20.678Z,7.57
2022-10-19T07:51:47.247Z,7.30
2022-10-19T07:55:04.362Z,6.43
2022-10-19T07:57:30.830Z,8.52
2022-10-19T07:59:57.285Z,4.90
2022-10-19T08:02:30.773Z,7.00
2022-10-19T08:05:09.143Z,9.38
2022-10-19T08:07:37.896Z,9.35
2022-10-19T08:10:05.209Z,10.98
2022-10-19T08:12:31.899Z,5.82
2022-10-19T08:14:58.576Z,10.85
2022-10-19T08:17:25.046Z,7.93
2022-10-19T08:19:51.525Z,8.73
2022-10-19T08:22:17.962Z,6.40
2022-10-19T08:24:44.427Z,7.28
2022-10-19T08:27:10.866Z,8.13
2022-10-19T08:29:37.298Z,10.10
2022-10-19T08:32:03.825Z,8.30
2022-10-19T08:34:30.272Z,6.40
2022-10-19T08:36:56.726Z,6.90
2022-10-19T08:39:23.264Z,9.68
2022-10-19T08:42:05.007Z,10.70
2022-10-19T08:44:34.454Z,6.32
2022-10-19T08:47:13.836Z,9.07
2022-10-19T08:49:41.636Z,6.68
2022-10-19T08:52:16.251Z,6.97
2022-10-19T08:54:55.578Z,6.10
2022-10-19T08:57:32.701Z,12.43
2022-10-19T09:00:14.895Z,7.93
2022-10-19T09:02:57.748Z,8.23
2022-10-19T09:05:30.961Z,8.93
2022-10-19T09:07:57.478Z,5.40
2022-10-19T09:10:28.464Z,7.03
2022-10-19T09:13:03.271Z,6.05
2022-10-19T09:15:40.603Z,8.40
2022-10-19T09:18:13.964Z,8.02
2022-10-19T09:20:44.440Z,11.48
2022-10-19T09:23:29.302Z,9.45
2022-10-19T09:25:57.309Z,5.00
2022-10-19T09:28:39.787Z,9.05
2022-10-19T09:31:14.709Z,6.97
2022-10-19T09:33:43.832Z,6.28
2022-10-19T09:36:18.308Z,7.43
2022-10-19T09:38:50.255Z,7.38
2022-10-19T09:41:19.647Z,9.68
2022-10-19T09:43:53.305Z,4.70
2022-10-19T09:49:15.538Z,8.70
2022-10-19T09:51:52.363Z,6.47
2022-10-19T09:54:25.493Z,8.10
2022-10-19T09:56:56.359Z,11.88
2022-10-19T09:59:28.175Z,5.43
2022-10-19T10:02:13.149Z,10.77
2022-10-19T10:04:39.635Z,4.40
2022-10-19T10:07:06.139Z,4.10
2022-10-19T10:09:38.260Z,6.72
2022-10-19T10:12:08.432Z,5.85
2022-10-19T10:14:36.504Z,3.55
2022-10-19T10:17:06.617Z,6.18
2022-10-19T10:19:36.021Z,3.92
2022-10-19T10:22:04.313Z,6.82
2022-10-19T10:24:34.165Z,8.35
2022-10-19T10:27:04.347Z,4.85
2022-10-19T10:29:36.644Z,4.13
2022-10-19T10:32:17.847Z,6.72
2022-10-19T10:34:53.802Z,2.92
2022-10-19T10:37:46.002Z,3.25
2022-10-19T10:40:24.531Z,2.70
2022-10-19T10:42:54.128Z,1.48
2022-10-19T10:45:29.251Z,1.67
2022-10-19T10:47:57.658Z,1.90
2022-10-19T10:50:34.126Z,2.03
2022-10-19T10:53:04.353Z,2.13
2022-10-19T10:55:32.140Z,3.08
2022-10-19T10:58:11.732Z,4.45
2022-10-19T11:00:40.323Z,3.15
2022-10-19T11:03:17.434Z,5.22
2022-10-19T11:05:48.089Z,3.95
2022-10-19T11:08:26.983Z,2.67
2022-10-19T11:11:00.373Z,4.93
2022-10-19T11:13:46.369Z,4.32
2022-10-19T11:16:16.786Z,1.88
2022-10-19T11:18:43.196Z,3.22
2022-10-19T11:21:31.994Z,2.92
2022-10-19T11:24:23.621Z,5.88
2022-10-19T11:27:14.591Z,3.78
2022-10-19T11:30:16.096Z,3.50
2022-10-19T11:33:07.819Z,1.73
2022-10-19T11:35:39.705Z,2.45
2022-10-19T11:38:25.147Z,1.38
2022-10-19T11:41:18.289Z,2.67
2022-10-19T11:43:56.265Z,1.65
2022-10-19T11:46:41.994Z,2.17
2022-10-19T11:49:45.618Z,1.17
2022-10-19T11:52:29.222Z,0.75
2022-10-19T11:55:00.494Z,1.38
2022-10-19T11:57:44.835Z,1.10
2022-10-19T12:00:37.540Z,4.47
2022-10-19T12:03:41.359Z,3.45
2022-10-19T12:06:26.492Z,3.72
2022-10-19T12:09:20.988Z,2.42
2022-10-19T12:12:07.199Z,2.45
2022-10-19T12:14:38.942Z,2.05
2022-10-19T12:17:10.914Z,2.67
2022-10-19T12:19:45.256Z,2.33
2022-10-19T12:22:25.051Z,0.63
2022-10-19T12:24:55.402Z,1.27
2022-10-19T12:27:31.935Z,1.73
2022-10-19T12:30:04.418Z,6.25
2022-10-19T12:32:37.505Z,0.63
2022-10-19T12:35:26.066Z,2.15
2022-10-19T12:38:05.565Z,0.68
2022-10-19T12:40:43.579Z,2.30
2022-10-19T12:43:24.178Z,1.67
2022-10-19T12:46:07.727Z,3.95
2022-10-19T12:48:36.354Z,1.10
2022-10-19T12:51:11.901Z,1.35
2022-10-19T12:53:42.524Z,1.42
2022-10-19T12:56:17.986Z,1.98
2022-10-19T12:58:47.482Z,0.38
2022-10-19T13:01:22.467Z,1.05
2022-10-19T13:03:53.845Z,0.95
2022-10-19T13:08:52.756Z,0.77
2022-10-19T13:11:20.604Z,1.90
2022-10-19T13:13:54.854Z,2.08
2022-10-19T13:16:30.333Z,1.35
2022-10-19T13:18:59.753Z,1.52
2022-10-19T13:21:44.835Z,1.60
2022-10-19T13:24:27.923Z,1.70
2022-10-19T13:27:03.226Z,3.20
2022-10-19T13:29:38.882Z,1.52
2022-10-19T13:32:39.078Z,1.17
2022-10-19T13:35:25.345Z,1.42
2022-10-19T13:38:15.882Z,1.70
2022-10-19T13:40:48.142Z,2.47
2022-10-19T13:43:20.218Z,1.58
2022-10-19T13:46:10.440Z,2.28
2022-10-19T13:51:20.229Z,1.70
2022-10-19T13:54:13.861Z,2.95
2022-10-19T13:56:58.653Z,0.93
2022-10-19T13:59:49.858Z,3.67
2022-10-19T14:02:47.756Z,0.52
2022-10-19T14:05:27.161Z,2.60
2022-10-19T14:08:08.515Z,0.60
2022-10-19T14:10:56.234Z,1.00
2022-10-19T14:13:23.248Z,3.83
2022-10-19T14:15:53.275Z,2.47
2022-10-19T14:18:34.687Z,1.00
2022-10-19T14:21:06.313Z,1.40
2022-10-19T14:23:35.618Z,0.85
2022-10-19T14:26:11.423Z,2.42
2022-10-19T14:28:39.723Z,2.60
2022-10-19T14:31:09.615Z,1.15
2022-10-19T14:33:40.109Z,0.93
2022-10-19T14:36:17.040Z,0.50
2022-10-19T14:38:43.910Z,1.92
2022-10-19T14:41:29.113Z,2.70
2022-10-19T14:43:56.901Z,0.82
2022-10-19T14:46:33.204Z,1.30
2022-10-19T14:49:05.190Z,1.13
2022-10-19T14:52:10.230Z,0.82
2022-10-19T14:54:46.262Z,1.13
2022-10-19T14:57:17.994Z,1.42
2022-10-19T14:59:53.898Z,3.45
2022-10-19T15:02:34.576Z,2.72
2022-10-19T15:05:03.570Z,2.53
2022-10-19T15:07:41.620Z,2.65
2022-10-19T15:10:39.285Z,0.65
2022-10-19T15:13:07.448Z,1.17
2022-10-19T15:15:35.675Z,1.90
2022-10-19T15:18:02.218Z,1.35
2022-10-19T15:20:43.933Z,1.20
2022-10-19T15:23:30.440Z,1.23
2022-10-19T15:26:01.870Z,1.38
2022-10-19T15:28:37.429Z,2.08
2022-10-19T15:31:19.701Z,1.75
2022-10-19T15:33:51.725Z,1.95
2022-10-19T15:36:20.087Z,2.08
2022-10-19T15:39:18.175Z,1.30
2022-10-19T15:41:50.448Z,2.35
2022-10-19T15:44:42.903Z,1.08
2022-10-19T15:47:15.279Z,1.48
2022-10-19T15:49:41.708Z,1.10
2022-10-19T15:52:19.543Z,0.95
2022-10-19T15:54:51.298Z,0.88
2022-10-19T15:57:38.187Z,1.85
2022-10-19T16:00:13.473Z,11.63
2022-10-19T16:02:40.026Z,1.88
2022-10-19T16:07:40.983Z,2.08
2022-10-19T16:10:14.710Z,1.63
2022-10-19T16:12:41.257Z,2.10
2022-10-19T16:15:12.109Z,4.40
2022-10-19T16:17:38.981Z,3.35
2022-10-19T16:20:06.355Z,3.03
2022-10-19T16:22:32.785Z,3.38
2022-10-19T16:24:59.277Z,3.00
2022-10-19T16:27:25.728Z,3.55
2022-10-19T16:29:52.213Z,3.40
2022-10-19T16:32:18.662Z,4.55
2022-10-19T16:34:46.321Z,3.63
2022-10-19T16:37:12.756Z,3.47
2022-10-19T16:39:39.202Z,2.70
2022-10-19T16:42:05.644Z,3.97
2022-10-19T16:44:32.100Z,2.63
2022-10-19T16:46:58.793Z,2.33
2022-10-19T16:49:26.073Z,2.25
2022-10-19T16:51:56.263Z,3.05
2022-10-19T16:54:26.695Z,3.60
2022-10-19T16:56:53.230Z,1.65
2022-10-19T16:59:19.794Z,2.40
2022-10-19T17:01:47.009Z,4.43
2022-10-19T17:04:15.668Z,2.40
2022-10-19T17:06:42.238Z,3.10
2022-10-19T17:09:40.663Z,2.45
2022-10-19T17:11:55.838Z,2.85
2022-10-19T17:14:22.294Z,2.72
2022-10-19T17:16:48.942Z,5.03
2022-10-19T17:19:15.535Z,3.67
2022-10-19T17:21:42.493Z,2.78
2022-10-19T17:24:17.136Z,3.25
2022-10-19T17:26:48.421Z,3.22
2022-10-19T17:29:14.961Z,5.68
2022-10-19T17:31:42.122Z,2.97
2022-10-19T17:34:09.283Z,2.80
2022-10-19T17:39:14.600Z,2.35
2022-10-19T17:41:41.099Z,3.10
2022-10-19T17:44:07.681Z,4.70
2022-10-19T17:46:34.965Z,2.00
2022-10-19T17:49:01.596Z,5.88
2022-10-19T17:51:30.693Z,4.45
2022-10-19T17:54:27.678Z,3.88
2022-10-19T17:56:54.247Z,3.38
2022-10-19T17:59:30.345Z,3.53
2022-10-19T18:02:02.341Z,4.63
2022-10-19T18:04:28.854Z,7.20
2022-10-19T18:06:55.343Z,3.10
2022-10-19T18:09:21.816Z,5.53
2022-10-19T18:11:48.273Z,5.85
2022-10-19T18:14:14.776Z,6.63
2022-10-19T18:16:45.509Z,5.10
2022-10-19T18:19:13.754Z,4.47
2022-10-19T18:21:42.428Z,7.25
2022-10-19T18:24:15.212Z,3.65
2022-10-19T18:26:42.631Z,3.67
2022-10-19T18:29:12.831Z,3.20
2022-10-19T18:31:40.137Z,6.82
2022-10-19T18:34:10.749Z,9.30
2022-10-19T18:36:37.779Z,9.18
2022-10-19T18:39:05.437Z,8.55
2022-10-19T18:41:32.189Z,6.68
2022-10-19T18:44:05.034Z,6.45
2022-10-19T18:46:36.192Z,6.40
2022-10-19T18:49:04.655Z,7.80
2022-10-19T18:51:31.891Z,6.63
2022-10-19T18:53:59.084Z,10.88
2022-10-19T18:56:26.287Z,6.65
2022-10-19T18:58:52.774Z,4.97
2022-10-19T19:01:24.964Z,7.75
2022-10-19T19:03:53.268Z,7.30
2022-10-19T19:06:22.345Z,6.03
2022-10-19T19:08:49.538Z,6.15
2022-10-19T19:11:19.999Z,5.90
2022-10-19T19:13:54.628Z,5.53
2022-10-19T19:16:22.411Z,7.47
2022-10-19T19:18:49.079Z,6.13
2022-10-19T19:21:26.304Z,7.40
2022-10-19T19:23:54.563Z,6.50
2022-10-19T19:26:23.120Z,4.47
2022-10-19T19:28:51.653Z,4.95
2022-10-19T19:31:19.174Z,8.07
2022-10-19T19:33:47.693Z,8.05
2022-10-19T19:36:15.973Z,5.72
2022-10-19T19:38:42.953Z,6.57
2022-10-19T19:41:12.318Z,5.65
2022-10-19T19:43:39.916Z,6.53
2022-10-19T19:46:12.319Z,6.25
2022-10-19T19:48:40.887Z,6.45
2022-10-19T19:51:09.352Z,9.25
2022-10-19T19:53:37.237Z,8.57
2022-10-19T19:56:06.488Z,8.30
2022-10-19T19:58:33.016Z,8.52
2022-10-19T20:00:59.529Z,9.98
2022-10-19T20:03:26.282Z,8.02
2022-10-19T20:05:52.736Z,10.27
2022-10-19T20:08:19.219Z,11.05
2022-10-19T20:10:45.653Z,7.38
2022-10-19T20:13:12.128Z,6.88
2022-10-19T20:15:39.433Z,6.43
2022-10-19T20:18:06.569Z,6.88
2022-10-19T20:20:33.076Z,7.07
2022-10-19T20:22:59.536Z,9.13
2022-10-19T20:25:26.039Z,7.75
2022-10-19T20:27:52.491Z,7.97
2022-10-19T20:30:18.985Z,8.88
2022-10-19T20:32:45.445Z,5.63
2022-10-19T20:35:11.872Z,6.65
2022-10-19T20:37:38.355Z,10.05
2022-10-19T20:40:08.580Z,6.40
2022-10-19T20:42:36.191Z,6.30
2022-10-19T20:45:03.013Z,7.90
2022-10-19T20:47:29.503Z,6.90
2022-10-19T20:49:55.980Z,8.38
2022-10-19T20:52:22.557Z,6.18
2022-10-19T20:54:49.253Z,5.90
2022-10-19T20:57:15.784Z,6.53
2022-10-19T20:59:43.836Z,7.38
2022-10-19T21:02:10.784Z,6.43
2022-10-19T21:04:37.835Z,7.45
2022-10-19T21:07:05.043Z,7.00
2022-10-19T21:09:32.021Z,7.10
2022-10-19T21:11:58.909Z,7.00
2022-10-19T21:14:28.701Z,6.93
2022-10-19T21:16:56.903Z,6.18
2022-10-19T21:19:25.702Z,8.32
2022-10-19T21:21:56.438Z,7.72
2022-10-19T21:24:25.831Z,7.55
2022-10-19T21:29:23.798Z,7.45
2022-10-19T21:31:52.201Z,6.00
2022-10-19T21:34:30.118Z,8.82
2022-10-19T21:36:56.996Z,6.82
2022-10-19T21:39:23.552Z,7.40
2022-10-19T21:41:50.343Z,7.95
2022-10-19T21:44:18.392Z,5.82
2022-10-19T21:46:47.337Z,9.43
2022-10-19T21:49:13.913Z,6.00
2022-10-19T21:51:49.714Z,6.80
2022-10-19T21:54:18.766Z,7.65
2022-10-19T21:56:45.530Z,5.60
2022-10-19T21:59:12.813Z,7.05
2022-10-19T22:01:41.625Z,8.40
2022-10-19T22:04:15.291Z,5.80
2022-10-19T22:06:42.442Z,7.65
2022-10-19T22:09:11.998Z,8.10
2022-10-19T22:11:38.532Z,9.30
2022-10-19T22:14:05.392Z,6.78
2022-10-19T22:16:33.190Z,7.60
2022-10-19T22:18:59.636Z,7.50
2022-10-19T22:21:29.354Z,7.35
2022-10-19T22:24:05.389Z,9.10
2022-10-19T22:26:37.873Z,8.25
2022-10-19T22:29:05.313Z,7.60
2022-10-19T22:31:32.709Z,6.97
2022-10-19T22:34:04.772Z,5.90
2022-10-19T22:36:31.254Z,4.72
2022-10-19T22:38:57.718Z,8.05
2022-10-19T22:41:24.160Z,5.60
2022-10-19T22:43:50.594Z,5.88
2022-10-19T22:46:17.051Z,7.05
2022-10-19T22:48:43.638Z,5.53
2022-10-19T22:51:10.187Z,7.47
2022-10-19T22:53:36.638Z,6.47
2022-10-19T22:56:03.339Z,5.40
2022-10-19T22:58:29.759Z,8.80
2022-10-19T23:01:06.086Z,6.28
2022-10-19T23:03:32.912Z,7.05
2022-10-19T23:05:59.490Z,5.88
2022-10-19T23:08:26.669Z,5.43
2022-10-19T23:10:53.389Z,6.45
2022-10-19T23:13:19.845Z,5.80
2022-10-19T23:15:46.264Z,8.38
2022-10-19T23:18:13.553Z,7.78
2022-10-19T23:20:40.235Z,4.63
2022-10-19T23:23:06.961Z,5.25
2022-10-19T23:25:33.418Z,4.55
2022-10-19T23:27:59.896Z,6.93
2022-10-19T23:30:26.417Z,4.45
2022-10-19T23:32:52.846Z,8.02
2022-10-19T23:35:19.318Z,7.88
2022-10-19T23:37:45.753Z,5.63
2022-10-19T23:40:12.319Z,4.40
2022-10-19T23:42:38.789Z,3.90
2022-10-19T23:45:05.734Z,5.35
2022-10-19T23:47:32.309Z,5.90
2022-10-19T23:49:58.829Z,5.13
2022-10-19T23:52:25.273Z,19.65
2022-10-19T23:54:51.693Z,3.88
2022-10-19T23:57:18.313Z,4.78
2022-10-19T23:59:44.741Z,4.68
